Time;durP1;ratioP1;P1;durP2;ratioP2;P2;SDS_P1;SDS_P2;PMS_P1;PMS_P2;Temp;Humidity;BMP_temperature;BMP_pressure;BME280_temperature;BME280_humidity;BME280_pressure;Samples;Min_cycle;Max_cycle;Signal;HPM_P1;HPM_P2
2021/08/01 00:00:50;;;;;;;;;5.00;5.00;;;;;21.77;47.53;100599.38;5059028;28;45248;-53
2021/08/01 00:03:16;;;;;;;;;6.67;6.67;;;;;21.74;47.30;100598.63;5060334;28;45517;-55
2021/08/01 00:05:45;;;;;;;;;6.00;5.67;;;;;21.71;47.37;100597.94;5061475;28;48162;-54
2021/08/01 00:08:11;;;;;;;;;7.67;7.00;;;;;21.69;47.04;100589.09;5058289;28;45376;-55
2021/08/01 00:10:37;;;;;;;;;7.00;6.00;;;;;21.68;48.01;100595.47;5060294;28;45373;-54
2021/08/01 00:13:02;;;;;;;;;5.33;5.00;;;;;21.67;47.42;100596.44;5056915;28;45466;-52
2021/08/01 00:15:28;;;;;;;;;11.67;6.33;;;;;21.66;47.56;100598.28;5061650;28;48359;-55
2021/08/01 00:17:54;;;;;;;;;4.33;4.00;;;;;21.65;48.01;100588.44;5056509;28;46197;-55
2021/08/01 00:20:19;;;;;;;;;5.67;5.33;;;;;21.63;47.97;100593.09;5061145;28;45422;-53
2021/08/01 00:22:45;;;;;;;;;5.00;5.00;;;;;21.63;48.04;100597.63;5058641;28;45807;-55
2021/08/01 00:25:11;;;;;;;;;4.33;4.33;;;;;21.60;47.61;100600.56;5063228;28;48395;-53
2021/08/01 00:27:36;;;;;;;;;6.67;6.67;;;;;21.58;48.19;100602.47;5051861;28;45731;-51
2021/08/01 00:30:05;;;;;;;;;5.67;5.67;;;;;21.55;48.01;100606.25;5058386;28;45458;-53
2021/08/01 00:32:31;;;;;;;;;6.00;6.00;;;;;21.51;48.22;100598.47;5057539;28;45425;-52
2021/08/01 00:34:56;;;;;;;;;5.33;5.00;;;;;21.51;48.25;100606.59;5064788;27;48098;-55
2021/08/01 00:37:23;;;;;;;;;5.00;5.00;;;;;21.49;48.53;100604.00;5063219;28;45283;-54
2021/08/01 00:39:51;;;;;;;;;6.00;6.00;;;;;21.49;48.46;100603.13;5064584;28;45513;-54
2021/08/01 00:42:17;;;;;;;;;5.33;5.33;;;;;21.48;48.50;100598.72;5063465;28;45343;-56
2021/08/01 00:44:42;;;;;;;;;8.00;8.00;;;;;21.49;48.67;100605.84;5064919;28;48225;-55
2021/08/01 00:47:09;;;;;;;;;6.67;6.67;;;;;21.48;48.15;100607.66;5060760;28;45373;-52
2021/08/01 00:49:35;;;;;;;;;7.00;7.00;;;;;21.43;48.53;100605.25;5066688;27;45374;-55
2021/08/01 00:52:01;;;;;;;;;6.00;6.00;;;;;21.42;48.19;100608.06;5062685;28;45637;-54
2021/08/01 00:54:27;;;;;;;;;4.67;4.67;;;;;21.36;48.44;100603.09;5073527;28;47492;-56
2021/08/01 00:56:52;;;;;;;;;6.00;6.00;;;;;21.32;48.75;100607.81;5070261;28;45714;-55
2021/08/01 00:59:18;;;;;;;;;7.00;7.00;;;;;21.29;48.55;100596.38;5064016;28;46435;-56
2021/08/01 01:02:02;;;;;;;;;5.00;5.00;;;;;21.28;48.55;100595.53;5060383;28;45476;-56
2021/08/01 01:05:05;;;;;;;;;6.33;5.67;;;;;21.30;49.19;100604.38;5063042;28;47453;-54
2021/08/01 01:07:47;;;;;;;;;6.67;5.00;;;;;21.30;48.90;100600.81;5063955;28;45543;-53
2021/08/01 01:10:37;;;;;;;;;6.00;6.00;;;;;21.28;49.02;100600.91;5062346;27;45420;-53
2021/08/01 01:13:18;;;;;;;;;7.00;5.00;;;;;21.26;49.10;100602.00;5055106;28;45390;-54
2021/08/01 01:15:54;;;;;;;;;10.75;10.75;;;;;21.26;49.25;100599.31;5063101;28;47615;-54
2021/08/01 01:18:26;;;;;;;;;10.33;9.00;;;;;21.25;49.34;100609.22;5062004;28;46416;-54
2021/08/01 01:20:58;;;;;;;;;7.33;7.33;;;;;21.24;49.02;100607.47;5061373;28;45354;-53
2021/08/01 01:23:35;;;;;;;;;6.33;6.33;;;;;21.24;49.02;100603.91;5062908;28;45290;-51
2021/08/01 01:26:23;;;;;;;;;6.75;5.25;;;;;21.23;48.81;100608.44;5062016;28;47492;-54
2021/08/01 01:29:06;;;;;;;;;5.00;5.00;;;;;21.22;49.06;100605.84;5063416;28;45641;-54
2021/08/01 01:31:45;;;;;;;;;7.00;6.33;;;;;21.24;48.97;100603.91;5060052;28;45512;-54
2021/08/01 01:34:20;;;;;;;;;5.67;4.00;;;;;21.22;49.33;100606.72;5061948;28;45449;-55
2021/08/01 01:36:47;;;;;;;;;4.67;4.67;;;;;21.24;49.43;100604.78;5061877;27;47258;-55
2021/08/01 01:39:15;;;;;;;;;7.33;5.33;;;;;21.27;49.53;100614.53;5061281;28;45533;-53
2021/08/01 01:41:46;;;;;;;;;5.00;5.00;;;;;21.28;49.09;100609.00;5061472;28;45491;-52
2021/08/01 01:44:13;;;;;;;;;5.67;5.00;;;;;21.30;49.07;100615.16;5061090;28;45404;-51
2021/08/01 01:46:40;;;;;;;;;4.00;4.00;;;;;21.31;49.25;100605.25;5061720;28;48121;-54
2021/08/01 01:49:08;;;;;;;;;4.00;4.00;;;;;21.31;49.14;100606.09;5061086;28;45640;-53
2021/08/01 01:51:35;;;;;;;;;4.67;3.67;;;;;21.28;48.89;100609.00;5061172;27;45596;-52
2021/08/01 01:54:01;;;;;;;;;4.67;4.67;;;;;21.23;48.70;100603.03;5069966;28;45569;-53
2021/08/01 01:56:30;;;;;;;;;5.00;4.00;;;;;21.19;48.88;100598.81;5069920;27;48351;-54
2021/08/01 01:58:57;;;;;;;;;4.00;4.00;;;;;21.22;48.76;100605.84;5088783;27;45348;-54
2021/08/01 02:01:23;;;;;;;;;4.00;4.00;;;;;21.22;49.21;100604.00;5059971;28;45633;-51
2021/08/01 02:03:50;;;;;;;;;4.00;4.00;;;;;21.22;49.27;100598.63;5055944;28;45309;-53
2021/08/01 02:06:16;;;;;;;;;4.00;4.00;;;;;21.23;49.18;100596.78;5059442;28;45417;-51
2021/08/01 02:08:58;;;;;;;;;4.33;4.33;;;;;21.19;48.88;100593.41;5050336;28;45350;-53
2021/08/01 02:11:33;;;;;;;;;4.33;4.33;;;;;21.16;49.25;100596.31;5050850;28;45343;-53
2021/08/01 02:14:12;;;;;;;;;5.00;5.00;;;;;21.12;48.62;100592.09;5060856;27;45624;-54
2021/08/01 02:16:40;;;;;;;;;4.00;4.00;;;;;21.10;49.23;100600.31;5054522;28;48210;-54
2021/08/01 02:19:09;;;;;;;;;3.67;3.67;;;;;21.11;48.92;100601.19;5050213;28;45274;-54
2021/08/01 02:21:39;;;;;;;;;3.67;3.67;;;;;21.14;48.91;100596.44;5061170;28;45369;-55
2021/08/01 02:24:06;;;;;;;;;3.67;3.67;;;;;21.16;49.03;100582.81;5063026;27;45806;-54
2021/08/01 02:26:35;;;;;;;;;4.67;4.33;;;;;21.14;49.39;100582.94;5061201;28;45400;-53
2021/08/01 02:29:03;;;;;;;;;4.00;4.00;;;;;21.11;48.90;100593.06;5062149;27;45771;-52
2021/08/01 02:31:29;;;;;;;;;4.67;4.67;;;;;21.07;48.96;100592.41;5057610;28;45483;-50
2021/08/01 02:33:55;;;;;;;;;3.00;3.00;;;;;21.07;48.89;100595.09;5060936;28;45552;-53
2021/08/01 02:36:23;;;;;;;;;4.67;4.33;;;;;21.08;49.58;100591.44;5048297;28;47144;-54
2021/08/01 02:38:53;;;;;;;;;4.00;4.00;;;;;21.09;48.99;100587.78;5060374;27;45542;-53
2021/08/01 02:41:31;;;;;;;;;4.00;4.00;;;;;21.10;49.15;100588.66;5061942;28;45364;-54
2021/08/01 02:44:08;;;;;;;;;4.67;4.67;;;;;21.10;49.39;100589.50;5058988;28;45317;-54
2021/08/01 02:46:34;;;;;;;;;4.00;4.00;;;;;21.09;49.28;100582.38;5060275;28;47116;-54
2021/08/01 02:49:02;;;;;;;;;6.00;4.33;;;;;21.06;49.83;100579.88;5058684;28;45361;-55
2021/08/01 02:51:30;;;;;;;;;3.00;3.00;;;;;21.05;49.85;100580.84;5076969;27;45716;-54
2021/08/01 02:53:57;;;;;;;;;5.00;5.00;;;;;21.05;50.00;100578.16;5068192;28;45859;-54
2021/08/01 02:56:26;;;;;;;;;4.25;4.25;;;;;21.05;49.92;100585.38;5070407;27;47470;-53
2021/08/01 02:58:54;;;;;;;;;5.00;5.00;;;;;21.04;49.41;100589.03;5059744;28;45508;-54
2021/08/01 03:01:19;;;;;;;;;5.33;5.33;;;;;21.04;49.42;100589.03;5060530;28;45327;-53
2021/08/01 03:03:47;;;;;;;;;9.50;8.50;;;;;21.04;49.95;100594.44;5061016;27;45618;-53
2021/08/01 03:06:16;;;;;;;;;4.33;4.33;;;;;21.04;49.57;100592.63;5060867;28;48349;-53
2021/08/01 03:08:42;;;;;;;;;9.50;8.25;;;;;21.05;50.07;100594.34;5060277;28;45768;-53
2021/08/01 03:11:08;;;;;;;;;6.25;6.25;;;;;21.07;49.87;100588.84;5061517;28;45387;-52
2021/08/01 03:13:34;;;;;;;;;5.50;5.50;;;;;21.07;49.51;100594.22;5061572;28;45445;-53
2021/08/01 03:15:59;;;;;;;;;5.75;5.50;;;;;21.08;49.83;100595.97;5062587;27;48172;-53
2021/08/01 03:18:25;;;;;;;;;5.00;5.00;;;;;21.08;49.98;100594.13;5060436;28;45336;-52
2021/08/01 03:20:50;;;;;;;;;3.67;3.67;;;;;21.08;49.59;100591.44;5061069;28;45816;-54
2021/08/01 03:23:16;;;;;;;;;6.00;6.00;;;;;21.08;49.61;100593.25;5061527;28;45227;-54
2021/08/01 03:25:41;;;;;;;;;5.33;5.33;;;;;21.05;49.31;100594.34;5061824;27;47647;-53
2021/08/01 03:28:07;;;;;;;;;6.00;5.67;;;;;21.04;49.65;100591.75;5060297;28;46186;-54
2021/08/01 03:30:32;;;;;;;;;6.00;4.33;;;;;21.01;49.51;100590.13;5059991;27;45785;-54
2021/08/01 03:32:58;;;;;;;;;3.00;3.00;;;;;21.02;49.79;100591.84;5059317;28;45276;-54
2021/08/01 03:35:24;;;;;;;;;4.00;4.00;;;;;21.03;49.40;100592.72;5062387;27;47182;-55
2021/08/01 03:37:49;;;;;;;;;5.00;4.33;;;;;21.04;49.78;100589.03;5062043;28;45716;-55
2021/08/01 03:40:15;;;;;;;;;5.00;3.00;;;;;21.03;49.62;100582.78;5065190;27;45482;-54
2021/08/01 03:42:41;;;;;;;;;2.00;2.00;;;;;21.05;49.98;100579.97;5061813;27;45378;-53
2021/08/01 03:45:11;;;;;;;;;4.00;2.67;;;;;21.06;49.67;100587.09;5061856;27;48069;-54
2021/08/01 03:47:37;;;;;;;;;4.67;4.67;;;;;21.05;49.13;100585.38;5059860;28;45877;-54
2021/08/01 03:50:04;;;;;;;;;3.67;3.67;;;;;21.04;49.13;100586.34;5061639;27;45396;-54
2021/08/01 03:52:30;;;;;;;;;5.00;4.67;;;;;21.02;49.58;100586.47;5060632;28;45416;-54
2021/08/01 03:54:55;;;;;;;;;3.33;3.33;;;;;21.01;49.25;100582.03;5071712;27;47238;-55
2021/08/01 03:57:21;;;;;;;;;4.67;4.00;;;;;21.00;49.56;100587.53;5065058;27;45686;-54
2021/08/01 03:59:46;;;;;;;;;4.00;4.00;;;;;20.99;49.39;100589.38;5064270;28;45272;-54
2021/08/01 04:02:12;;;;;;;;;3.00;3.00;;;;;20.97;49.77;100577.81;5063820;27;45358;-54
2021/08/01 04:04:39;;;;;;;;;4.67;4.67;;;;;20.96;50.15;100581.50;5064999;27;47856;-55
2021/08/01 04:07:05;;;;;;;;;3.00;3.00;;;;;20.96;49.96;100583.28;5062790;27;45416;-54
2021/08/01 04:09:31;;;;;;;;;3.33;3.33;;;;;20.95;49.57;100577.03;5064714;28;45227;-53
2021/08/01 04:11:56;;;;;;;;;5.00;5.00;;;;;20.96;49.48;100583.28;5063345;28;45596;-54
2021/08/01 04:14:24;;;;;;;;;4.00;4.00;;;;;20.96;49.77;100583.28;5062627;28;48546;-50
2021/08/01 04:16:49;;;;;;;;;7.00;4.33;;;;;20.97;50.06;100582.34;5062502;28;45281;-53
2021/08/01 04:19:15;;;;;;;;;5.00;4.67;;;;;20.97;49.69;100582.34;5063220;28;45388;-53
2021/08/01 04:21:42;;;;;;;;;7.33;6.33;;;;;20.96;49.40;100573.41;5063754;28;45307;-53
2021/08/01 04:24:08;;;;;;;;;3.33;3.00;;;;;20.93;49.62;100578.09;5064790;27;47393;-53
2021/08/01 04:26:35;;;;;;;;;3.00;3.00;;;;;20.89;49.72;100580.16;5064043;28;45372;-50
2021/08/01 04:29:00;;;;;;;;;5.00;5.00;;;;;20.89;50.16;100579.28;5064575;27;45601;-52
2021/08/01 04:31:26;;;;;;;;;4.00;4.00;;;;;20.89;50.05;100573.91;5061171;28;45517;-54
2021/08/01 04:33:51;;;;;;;;;2.67;2.67;;;;;20.86;49.94;100577.66;5063154;28;47290;-55
2021/08/01 04:36:17;;;;;;;;;4.33;4.33;;;;;20.81;49.84;100577.09;5079957;27;45870;-54
2021/08/01 04:38:42;;;;;;;;;5.00;5.00;;;;;20.76;50.00;100574.72;5063975;27;45560;-53
2021/08/01 04:41:08;;;;;;;;;3.67;3.67;;;;;20.74;49.89;100573.94;5064364;27;45310;-52
2021/08/01 04:43:33;;;;;;;;;3.67;3.67;;;;;20.75;49.88;100582.91;5063330;27;48283;-53
2021/08/01 04:45:59;;;;;;;;;5.00;4.33;;;;;20.73;49.92;100576.75;5063701;28;45330;-54
2021/08/01 04:48:24;;;;;;;;;3.00;3.00;;;;;20.71;50.44;100576.84;5061285;28;45458;-53
2021/08/01 04:50:50;;;;;;;;;4.00;4.00;;;;;20.71;50.02;100575.97;5063235;27;45722;-49
2021/08/01 04:53:15;;;;;;;;;3.67;3.00;;;;;20.69;50.01;100576.06;5064311;28;46442;-52
2021/08/01 04:55:41;;;;;;;;;3.00;3.00;;;;;20.66;50.32;100573.56;5077613;28;45478;-52
2021/08/01 04:58:06;;;;;;;;;4.00;3.00;;;;;20.65;50.35;100582.63;5063270;27;45444;-52
2021/08/01 05:00:32;;;;;;;;;3.00;3.00;;;;;20.62;50.33;100576.59;5060344;28;45464;-52
2021/08/01 05:02:59;;;;;;;;;3.00;3.00;;;;;20.61;50.17;100578.44;5061185;27;48172;-52
2021/08/01 05:05:25;;;;;;;;;6.00;4.00;;;;;20.61;50.58;100573.03;5061569;28;45804;-54
2021/08/01 05:07:50;;;;;;;;;3.00;3.00;;;;;20.62;50.32;100576.59;5084547;27;45356;-53
2021/08/01 05:10:16;;;;;;;;;3.00;3.00;;;;;20.61;50.74;100575.72;5055221;28;45512;-54
2021/08/01 05:12:41;;;;;;;;;2.33;2.00;;;;;20.60;50.60;100583.91;5064372;28;48298;-52
2021/08/01 05:15:07;;;;;;;;;4.00;4.00;;;;;20.60;50.72;100576.69;5062638;28;45428;-54
2021/08/01 05:17:33;;;;;;;;;3.33;3.33;;;;;20.59;50.99;100577.66;5065127;27;45403;-55
2021/08/01 05:19:58;;;;;;;;;3.33;3.00;;;;;20.59;50.79;100587.59;5061619;28;45960;-54
2021/08/01 05:22:24;;;;;;;;;3.00;3.00;;;;;20.54;51.11;100591.41;5064543;28;47761;-55
2021/08/01 05:24:49;;;;;;;;;2.33;2.33;;;;;20.53;51.44;100594.22;5076659;27;45701;-55
2021/08/01 05:27:14;;;;;;;;;5.67;4.00;;;;;20.50;51.24;100591.72;5063376;27;45973;-54
2021/08/01 05:29:40;;;;;;;;;4.00;3.00;;;;;20.48;51.24;100591.84;5057195;28;45407;-53
2021/08/01 05:32:06;;;;;;;;;2.67;2.33;;;;;20.49;51.54;100598.09;5062177;27;46097;-54
2021/08/01 05:34:31;;;;;;;;;2.00;2.00;;;;;20.48;51.71;100593.66;5061374;28;45369;-55
2021/08/01 05:36:58;;;;;;;;;3.33;3.33;;;;;20.48;51.71;100590.97;5058801;28;45533;-52
2021/08/01 05:39:23;;;;;;;;;1.67;1.67;;;;;20.48;51.93;100588.28;5062391;28;45350;-54
2021/08/01 05:41:49;;;;;;;;;4.00;4.00;;;;;20.45;51.83;100589.31;5074319;28;47298;-54
2021/08/01 05:44:14;;;;;;;;;2.00;2.00;;;;;20.45;51.58;100593.84;5056110;28;45599;-55
2021/08/01 05:46:39;;;;;;;;;3.33;3.33;;;;;20.43;51.97;100593.06;5063078;28;45296;-54
2021/08/01 05:49:05;;;;;;;;;3.33;3.33;;;;;20.40;51.76;100594.13;5063061;28;45386;-54
2021/08/01 05:51:30;;;;;;;;;3.67;3.67;;;;;20.39;51.92;100591.53;5060584;27;47185;-54
2021/08/01 05:53:56;;;;;;;;;3.00;3.00;;;;;20.36;51.78;100594.44;5066621;28;45990;-53
2021/08/01 05:56:21;;;;;;;;;3.00;3.00;;;;;20.34;52.04;100599.06;5069055;27;45745;-54
2021/08/01 05:58:47;;;;;;;;;3.00;3.00;;;;;20.33;52.51;100603.56;5064307;28;45773;-54
2021/08/01 06:01:14;;;;;;;;;4.00;4.00;;;;;20.33;52.57;100594.59;5061734;27;47170;-54
2021/08/01 06:03:41;;;;;;;;;3.67;3.67;;;;;20.34;52.41;100599.06;5065480;28;46207;-54
2021/08/01 06:06:19;;;;;;;;;2.67;2.67;;;;;20.34;52.64;100596.34;5062520;27;45392;-53
2021/08/01 06:08:47;;;;;;;;;4.00;4.00;;;;;20.35;52.08;100598.09;5066887;27;45534;-52
2021/08/01 06:11:14;;;;;;;;;3.33;3.00;;;;;20.36;52.54;100597.13;5066203;27;45499;-53
2021/08/01 06:13:40;;;;;;;;;2.33;2.33;;;;;20.37;52.46;100593.47;5083156;27;45752;-55
2021/08/01 06:16:08;;;;;;;;;6.00;6.00;;;;;20.41;52.38;100592.28;5074281;27;45519;-53
2021/08/01 06:18:34;;;;;;;;;3.00;3.00;;;;;20.40;51.97;100596.81;5062173;28;45298;-52
2021/08/01 06:21:02;;;;;;;;;2.00;2.00;;;;;20.40;52.56;100612.97;5055247;28;47703;-54
2021/08/01 06:23:27;;;;;;;;;2.33;2.33;;;;;20.39;52.58;100605.00;5085923;27;45633;-52
2021/08/01 06:25:53;;;;;;;;;4.33;4.33;;;;;20.40;52.37;100617.50;5059813;28;45680;-54
2021/08/01 06:28:18;;;;;;;;;2.00;2.00;;;;;20.39;52.68;100613.94;5055506;28;45476;-53
2021/08/01 06:30:44;;;;;;;;;2.00;2.00;;;;;20.40;52.34;100618.38;5061257;28;47466;-53
2021/08/01 06:33:09;;;;;;;;;3.00;3.00;;;;;20.41;52.71;100617.41;5044718;28;45499;-54
2021/08/01 06:35:36;;;;;;;;;4.00;2.00;;;;;20.42;52.40;100616.47;5048699;28;45601;-53
2021/08/01 06:38:02;;;;;;;;;2.67;2.67;;;;;20.42;52.66;100618.31;5049262;28;45591;-52
2021/08/01 06:40:28;;;;;;;;;4.00;4.00;;;;;20.43;52.30;100620.03;5044141;28;47437;-54
2021/08/01 06:42:53;;;;;;;;;4.00;3.33;;;;;20.43;52.45;100626.28;5049444;28;47603;-52
2021/08/01 06:45:18;;;;;;;;;3.33;2.67;;;;;20.43;52.26;100620.03;5048423;27;45369;-54
2021/08/01 06:47:44;;;;;;;;;3.67;3.00;;;;;20.43;52.61;100611.94;5047045;28;45390;-52
2021/08/01 06:50:09;;;;;;;;;3.67;3.67;;;;;20.44;52.67;100628.03;5041540;28;46036;-52
2021/08/01 06:52:35;;;;;;;;;4.00;2.00;;;;;20.43;52.22;100625.44;5047785;28;45565;-57
2021/08/01 06:55:02;;;;;;;;;3.00;2.00;;;;;20.43;52.05;100625.44;5049991;28;46360;-57
2021/08/01 06:57:28;;;;;;;;;3.00;3.00;;;;;20.41;52.16;100625.50;5055581;28;45747;-57
2021/08/01 06:59:53;;;;;;;;;2.67;2.67;;;;;20.40;52.52;100626.47;5086412;27;48133;-57
2021/08/01 07:02:19;;;;;;;;;2.00;2.00;;;;;20.39;52.68;100629.25;5055819;28;45638;-57
2021/08/01 07:04:44;;;;;;;;;3.00;3.00;;;;;20.37;52.45;100629.38;5051652;28;45583;-57
2021/08/01 07:07:09;;;;;;;;;4.00;3.00;;;;;20.34;52.68;100623.31;5052058;28;45537;-57
2021/08/01 07:09:40;;;;;;;;;2.67;2.67;;;;;20.32;52.51;100625.22;5046587;27;47374;-58
2021/08/01 07:12:06;;;;;;;;;2.00;2.00;;;;;20.28;52.27;100632.63;5057053;28;46147;-57
2021/08/01 07:14:32;;;;;;;;;2.67;2.00;;;;;20.28;52.30;100636.19;5056606;27;45515;-58
2021/08/01 07:16:58;;;;;;;;;5.00;5.00;;;;;20.30;52.73;100636.09;5046248;28;45970;-58
2021/08/01 07:19:23;;;;;;;;;1.67;1.67;;;;;20.30;52.32;100638.78;5053939;28;48370;-58
2021/08/01 07:21:49;;;;;;;;;3.00;2.00;;;;;20.33;52.80;100645.81;5052819;28;45841;-58
2021/08/01 07:24:14;;;;;;;;;2.67;2.67;;;;;20.37;52.44;100647.38;5051579;28;45288;-58
2021/08/01 07:26:40;;;;;;;;;2.00;2.00;;;;;20.40;52.43;100649.84;5050015;28;45618;-58
2021/08/01 07:29:05;;;;;;;;;2.67;2.67;;;;;20.42;52.49;100646.13;5057908;28;47224;-58
2021/08/01 07:31:31;;;;;;;;;3.00;3.00;;;;;20.44;52.30;100660.38;5059680;27;45848;-58
2021/08/01 07:33:57;;;;;;;;;3.33;3.33;;;;;20.47;52.42;100653.94;5056087;28;45294;-58
2021/08/01 07:36:23;;;;;;;;;2.00;2.00;;;;;20.51;52.38;100655.47;5060637;28;45763;-58
2021/08/01 07:38:49;;;;;;;;;3.00;3.00;;;;;20.54;52.08;100655.25;5050274;28;46203;-58
2021/08/01 07:41:14;;;;;;;;;2.00;2.00;;;;;20.57;52.21;100660.44;5049680;27;45538;-59
2021/08/01 07:43:39;;;;;;;;;5.00;4.00;;;;;20.56;51.88;100659.59;5052017;28;45830;-58
2021/08/01 07:46:06;;;;;;;;;4.00;4.00;;;;;20.56;52.09;100659.59;5051213;28;45380;-58
2021/08/01 07:48:32;;;;;;;;;3.33;2.00;;;;;20.57;51.84;100657.75;5053075;28;47559;-58
2021/08/01 07:50:57;;;;;;;;;4.00;4.00;;;;;20.60;51.79;100654.03;5063328;27;46046;-58
2021/08/01 07:53:23;;;;;;;;;2.33;2.33;;;;;20.64;51.99;100664.50;5061345;28;45325;-58
2021/08/01 07:55:49;;;;;;;;;3.67;3.33;;;;;20.65;51.56;100662.66;5060781;28;45640;-58
2021/08/01 07:58:14;;;;;;;;;2.33;2.33;;;;;20.68;51.70;100657.06;5053300;27;48009;-58
2021/08/01 08:00:40;;;;;;;;;2.67;2.67;;;;;20.74;52.10;100662.94;5061956;27;47023;-58
2021/08/01 08:03:05;;;;;;;;;2.67;2.00;;;;;20.82;51.40;100660.59;5048740;28;45456;-58
2021/08/01 08:05:31;;;;;;;;;3.67;3.67;;;;;20.88;51.00;100662.03;5051740;27;45751;-58
2021/08/01 08:07:56;;;;;;;;;2.33;2.33;;;;;20.95;51.02;100659.78;5051061;28;48104;-58
2021/08/01 08:10:22;;;;;;;;;3.00;3.00;;;;;21.04;50.46;100657.38;5076710;27;46132;-58
2021/08/01 08:12:48;;;;;;;;;2.00;2.00;;;;;21.07;50.63;100659.84;5052872;28;45709;-58
2021/08/01 08:15:14;;;;;;;;;2.00;2.00;;;;;21.12;50.74;100663.13;5049762;28;45417;-58
2021/08/01 08:17:39;;;;;;;;;2.00;2.00;;;;;21.20;50.11;100661.75;5063202;28;48167;-58
2021/08/01 08:20:07;;;;;;;;;2.00;2.00;;;;;21.25;50.57;100667.72;5049169;27;45888;-58
2021/08/01 08:22:32;;;;;;;;;2.00;1.00;;;;;21.32;50.01;100664.50;5053311;28;45661;-59
2021/08/01 08:24:58;;;;;;;;;1.33;1.33;;;;;21.39;49.48;100673.94;5048517;28;45564;-58
2021/08/01 08:27:24;;;;;;;;;1.67;1.67;;;;;21.48;49.82;100671.59;5065937;28;46335;-58
2021/08/01 08:29:49;;;;;;;;;1.33;1.33;;;;;21.57;49.31;100668.25;5057931;28;45512;-58
2021/08/01 08:32:15;;;;;;;;;2.00;2.00;;;;;21.61;48.69;100670.66;5043791;28;45353;-58
2021/08/01 08:34:40;;;;;;;;;1.67;1.67;;;;;21.69;48.73;100672.81;5053721;28;45425;-58
2021/08/01 08:37:06;;;;;;;;;2.00;2.00;;;;;21.76;48.54;100673.28;5049380;28;45711;-58
2021/08/01 08:39:32;;;;;;;;;3.00;2.00;;;;;21.86;48.77;100679.78;5046982;28;45426;-58
2021/08/01 08:41:59;;;;;;;;;2.33;2.33;;;;;21.92;48.72;100669.41;5050983;28;45419;-59
2021/08/01 08:44:26;;;;;;;;;1.67;1.67;;;;;21.94;47.90;100674.69;5070585;27;45691;-57
2021/08/01 08:46:54;;;;;;;;;1.00;1.00;;;;;21.90;47.64;100675.88;5052536;27;47096;-58
2021/08/01 08:49:21;;;;;;;;;2.00;2.00;;;;;21.82;47.37;100673.72;5054593;28;45435;-59
2021/08/01 08:51:48;;;;;;;;;3.00;2.00;;;;;21.76;47.52;100671.44;5055470;28;45396;-59
2021/08/01 08:54:16;;;;;;;;;1.00;1.00;;;;;21.74;47.36;100668.84;5055065;28;45615;-58
2021/08/01 08:56:44;;;;;;;;;1.33;1.33;;;;;21.72;47.61;100673.50;5061966;28;48253;-58
2021/08/01 08:59:12;;;;;;;;;0.67;0.67;;;;;21.71;47.57;100665.47;5050567;28;45424;-58
2021/08/01 09:01:38;;;;;;;;;1.00;1.00;;;;;21.68;47.33;100668.41;5057718;28;45599;-58
2021/08/01 09:04:05;;;;;;;;;1.00;1.00;;;;;21.67;47.60;100674.75;5077054;27;45404;-59
2021/08/01 09:06:30;;;;;;;;;1.00;1.00;;;;;21.67;47.08;100680.16;5053268;28;48654;-59
2021/08/01 09:08:56;;;;;;;;;2.33;1.33;;;;;21.65;47.16;100679.41;5047563;28;45562;-59
2021/08/01 09:11:22;;;;;;;;;1.00;1.00;;;;;21.67;47.49;100682.88;5053506;28;45817;-58
2021/08/01 09:13:49;;;;;;;;;1.00;1.00;;;;;21.67;47.29;100680.16;5057089;28;45392;-58
2021/08/01 09:16:17;;;;;;;;;1.00;1.00;;;;;21.66;47.20;100683.84;5046614;28;47522;-58
2021/08/01 09:18:44;;;;;;;;;1.00;1.00;;;;;21.65;47.14;100685.69;5070194;27;45704;-58
2021/08/01 09:21:30;;;;;;;;;3.00;3.00;;;;;21.65;47.51;100685.69;5048586;27;45687;-58
2021/08/01 09:23:56;;;;;;;;;2.00;2.00;;;;;21.68;46.77;100681.91;5053859;28;45594;-59
2021/08/01 09:26:21;;;;;;;;;2.00;1.67;;;;;21.73;47.25;100686.03;5055117;28;49603;-59
2021/08/01 09:29:02;;;;;;;;;5.00;2.67;;;;;21.77;47.15;100683.97;5053492;28;45762;-59
2021/08/01 09:31:27;;;;;;;;;3.33;3.33;;;;;21.82;46.95;100687.22;5048725;28;45738;-59
2021/08/01 09:33:53;;;;;;;;;3.00;3.00;;;;;21.85;46.93;100684.31;5048028;28;45825;-59
2021/08/01 09:36:22;;;;;;;;;3.00;3.00;;;;;21.88;46.72;100685.94;5042193;27;47242;-59
2021/08/01 09:38:58;;;;;;;;;2.67;2.00;;;;;21.91;46.66;100680.31;5049827;28;45518;-59
2021/08/01 09:41:25;;;;;;;;;1.00;1.00;;;;;21.91;47.03;100681.19;5045429;28;45538;-59
2021/08/01 09:43:56;;;;;;;;;2.00;1.00;;;;;21.92;46.72;100677.50;5046249;28;45646;-59
2021/08/01 09:46:41;;;;;;;;;3.00;3.00;;;;;21.93;46.23;100675.66;5051620;28;45365;-59
2021/08/01 09:49:21;;;;;;;;;1.00;1.00;;;;;21.96;46.46;100683.56;5053837;28;45387;-59
2021/08/01 09:51:54;;;;;;;;;1.33;1.33;;;;;21.96;46.22;100678.16;5053214;28;45857;-59
2021/08/01 09:54:22;;;;;;;;;1.00;1.00;;;;;21.98;46.87;100673.53;5063762;28;46051;-59
2021/08/01 09:57:06;;;;;;;;;1.00;1.00;;;;;22.03;46.80;100676.75;5055090;28;48513;-59
2021/08/01 09:59:32;;;;;;;;;2.00;2.00;;;;;22.05;45.78;100672.09;5074737;27;46159;-59
2021/08/01 10:02:02;;;;;;;;;1.00;1.00;;;;;22.04;45.81;100676.66;5049154;28;45698;-58
2021/08/01 10:04:40;;;;;;;;;1.00;1.00;;;;;22.05;45.49;100677.50;5051147;28;45267;-58
2021/08/01 10:07:07;;;;;;;;;2.00;1.67;;;;;22.05;45.58;100674.81;5044720;28;47374;-58
2021/08/01 10:09:34;;;;;;;;;2.00;1.67;;;;;22.06;45.62;100673.88;5048973;28;45438;-59
2021/08/01 10:11:59;;;;;;;;;1.00;1.00;;;;;22.07;45.59;100664.78;5057821;28;45508;-58
2021/08/01 10:14:26;;;;;;;;;1.00;1.00;;;;;22.08;45.61;100671.06;5045781;28;45691;-59
2021/08/01 10:16:52;;;;;;;;;2.00;2.00;;;;;22.06;45.11;100660.34;5084580;27;48648;-59
2021/08/01 10:19:19;;;;;;;;;1.00;1.00;;;;;22.03;45.72;100658.72;5057248;28;46046;-58
2021/08/01 10:21:47;;;;;;;;;0.00;0.00;;;;;22.03;45.67;100666.81;5056995;28;45703;-58
2021/08/01 10:24:15;;;;;;;;;0.33;0.33;;;;;22.06;45.57;100656.78;5045782;28;45508;-58
2021/08/01 10:26:49;;;;;;;;;2.00;1.00;;;;;22.10;45.35;100669.09;5056253;28;47052;-59
2021/08/01 10:29:29;;;;;;;;;1.00;1.00;;;;;22.18;45.49;100658.63;5059524;28;45734;-59
2021/08/01 10:31:58;;;;;;;;;1.00;1.00;;;;;22.24;45.12;100658.22;5048170;28;46801;-58
2021/08/01 10:34:39;;;;;;;;;1.00;1.00;;;;;22.24;45.18;100655.50;5056396;28;45383;-59
2021/08/01 10:37:07;;;;;;;;;2.00;2.00;;;;;22.26;44.83;100667.94;5048833;28;47310;-59
2021/08/01 10:39:35;;;;;;;;;1.00;1.00;;;;;22.26;45.27;100664.38;5041850;28;46074;-59
2021/08/01 10:42:07;;;;;;;;;1.00;1.00;;;;;22.25;44.72;100662.63;5046154;28;45467;-59
2021/08/01 10:44:35;;;;;;;;;1.33;1.00;;;;;22.29;44.39;100654.19;5047068;28;45633;-59
2021/08/01 10:47:05;;;;;;;;;1.00;1.00;;;;;22.35;44.58;100658.28;5059459;28;48408;-59
2021/08/01 10:49:31;;;;;;;;;0.00;0.00;;;;;22.39;44.22;100657.09;5047453;28;45347;-58
2021/08/01 10:51:56;;;;;;;;;0.00;0.00;;;;;22.41;43.83;100657.84;5048364;28;45504;-59
2021/08/01 10:54:24;;;;;;;;;1.33;0.33;;;;;22.47;43.51;100659.25;5043361;28;45290;-59
2021/08/01 10:57:18;;;;;;;;;0.00;0.00;;;;;22.55;43.63;100646.91;5046553;28;46824;-58
2021/08/01 10:59:44;;;;;;;;;1.00;1.00;;;;;22.64;43.41;100652.63;5054714;28;45362;-59
2021/08/01 11:02:17;;;;;;;;;0.00;0.00;;;;;22.72;43.27;100645.66;5056749;28;45350;-58
2021/08/01 11:04:45;;;;;;;;;4.00;3.00;;;;;22.77;43.46;100648.91;5070067;27;45835;-59
2021/08/01 11:07:26;;;;;;;;;2.00;1.00;;;;;22.82;43.24;100654.84;5054199;28;47565;-59
2021/08/01 11:10:07;;;;;;;;;0.67;0.67;;;;;22.96;42.86;100655.69;5047412;28;45644;-58
2021/08/01 11:12:35;;;;;;;;;0.00;0.00;;;;;23.06;42.88;100643.19;5053981;28;45388;-60
2021/08/01 11:15:03;;;;;;;;;0.00;0.00;;;;;23.13;42.00;100631.81;5045468;28;45485;-59
2021/08/01 11:17:46;;;;;;;;;1.00;1.00;;;;;23.12;42.00;100629.19;5053312;28;45353;-60
2021/08/01 11:20:26;;;;;;;;;0.00;0.00;;;;;;;;5077746;27;45506;-59
2021/08/01 11:23:01;;;;;;;;;1.00;1.00;;;;;23.06;42.23;100644.06;5046174;28;45520;-59
2021/08/01 11:25:30;;;;;;;;;1.00;1.00;;;;;;;;5057145;28;46995;-59
2021/08/01 11:28:21;;;;;;;;;1.00;1.00;;;;;23.15;41.96;100634.41;5045971;28;45601;-59
2021/08/01 11:30:53;;;;;;;;;1.00;1.00;;;;;23.24;41.97;100632.81;5051827;27;45294;-60